Thu, 04 Mar 2021 19:20:04 UTC

Information for RPM brotli-1.0.9-3.fc32.ppc64le.rpm

ID23452042
Namebrotli
Version1.0.9
Release3.fc32
Epoch
Archppc64le
SummaryLossless compression algorithm
DescriptionBrotli is a generic-purpose lossless compression algorithm that compresses data using a combination of a modern variant of the LZ77 algorithm, Huffman coding and 2nd order context modeling, with a compression ratio comparable to the best currently available general-purpose compression methods. It is similar in speed with deflate but offers more dense compression.
Build Time2020-10-09 11:51:45 GMT
Size361,168
12f187de2ebf950dc19f8bf96afa902f
LicenseMIT
Buildrootf32-build-23246797-2220371
Provides
brotli = 1.0.9-3.fc32
brotli(ppc-64) = 1.0.9-3.fc32
Obsoletes No Obsoletes
Conflicts No Conflicts
Requires
libbrotli(ppc-64) = 1.0.9-3.fc32
libc.so.6()(64bit)
libc.so.6(GLIBC_2.17)(64bit)
libm.so.6()(64bit)
libm.so.6(GLIBC_2.29)(64bit)
rpmlib(CompressedFileNames) <= 3.0.4-1
rpmlib(FileDigests) <= 4.6.0-1
rpmlib(PayloadFilesHavePrefix) <= 4.0-1
rpmlib(PayloadIsZstd) <= 5.4.18-1
rtld(GNU_HASH)
Recommends No Recommends
Suggests No Suggests
Supplements No Supplements
Enhances No Enhances
Files
1 through 4 of 4
Name ascending sort Size
/usr/bin/brotli858,832
/usr/lib/.build-id0
/usr/lib/.build-id/180
/usr/lib/.build-id/18/11c7f4b375e300a8a1237ee14a0d0b5e88ae9e26
Component of
Page:
1 through 50 of 1908 >>>
Buildroot descending sort Created State
f32-build-26066814-3078686 2021-03-04 10:29:10 expired
f32-build-26066779-3078686 2021-03-04 10:28:29 expired
f32-build-26063623-3078686 2021-03-04 04:31:34 expired
f32-build-26059818-3077252 2021-03-04 00:41:12 expired
f32-build-26038751-3068846 2021-03-02 16:51:20 expired
f32-build-26038744-3068846 2021-03-02 16:50:14 expired
f32-build-26036780-3068846 2021-03-02 15:04:50 expired
f32-build-26036727-3068846 2021-03-02 14:59:46 expired
f32-build-26036696-3068846 2021-03-02 14:56:58 expired
f32-build-26036685-3068846 2021-03-02 14:56:20 expired
f32-build-26036666-3068846 2021-03-02 14:55:59 expired
f32-build-26036643-3068846 2021-03-02 14:55:30 expired
f32-build-26036642-3068846 2021-03-02 14:55:26 expired
f32-build-26034636-3067572 2021-03-02 11:41:40 expired
f32-build-26030500-3067091 2021-03-02 08:03:59 expired
f32-build-26030492-3067091 2021-03-02 08:03:40 expired
f32-build-26030487-3067091 2021-03-02 08:03:38 expired
f32-build-26030475-3067091 2021-03-02 08:03:10 expired
f32-build-26030462-3067091 2021-03-02 08:02:40 expired
f32-build-26026780-3065984 2021-03-02 05:00:59 expired
f32-build-26024907-3065984 2021-03-02 03:14:49 expired
f32-build-26013632-3064205 2021-03-01 12:29:04 expired
f32-build-26012957-3064205 2021-03-01 11:48:12 expired
f32-build-26012424-3064205 2021-03-01 11:20:15 expired
f32-build-26012165-3064205 2021-03-01 11:06:24 expired
f32-build-26011879-3064205 2021-03-01 10:50:48 expired
f32-build-26011420-3064205 2021-03-01 10:21:05 expired
f32-build-26009668-3063595 2021-03-01 08:40:59 expired
f32-build-26009665-3063595 2021-03-01 08:40:43 expired
f32-build-26009660-3063595 2021-03-01 08:40:33 expired
f32-build-26006388-3063595 2021-03-01 05:50:48 expired
f32-build-26006368-3063595 2021-03-01 05:49:57 expired
f32-build-26006270-3063595 2021-03-01 05:47:18 expired
f32-build-26005905-3063595 2021-03-01 05:31:07 expired
f32-build-26003792-3063595 2021-03-01 03:42:58 expired
f32-build-26002915-3063595 2021-03-01 03:03:40 expired
f32-build-26002286-3063595 2021-03-01 02:35:17 expired
f32-build-25999466-3063595 2021-03-01 00:04:40 expired
f32-build-25998216-3063417 2021-02-28 22:34:25 expired
f32-build-25998197-3063417 2021-02-28 22:33:47 expired
f32-build-25997106-3062742 2021-02-28 21:06:52 expired
f32-build-25995965-3062742 2021-02-28 19:52:34 expired
f32-build-25993289-3061880 2021-02-28 16:25:16 expired
f32-build-25993197-3061880 2021-02-28 16:19:58 expired
f32-build-25991318-3061880 2021-02-28 14:46:13 expired
f32-build-25988133-3061880 2021-02-28 12:17:14 expired
f32-build-25987496-3061880 2021-02-28 11:44:21 expired
f32-build-25987455-3061880 2021-02-28 11:42:47 expired
f32-build-25974294-3061880 2021-02-28 02:19:48 expired
f32-build-25974185-3061880 2021-02-28 02:14:17 expired